Estación Meteorológica Peña el Pijo (Robertgarden) [ 01/30/23 15:12:33 CET ]

Fecha Hora Presion(HPa) Temp (°C) Humedad % Rocio (°C) Viento ( m/s) Direccion Lluvia 1Hora(mm) Lluvia 24H(mm) LLuvia Total(mm)
2010-May-27 01:01:12 1008.100 11.4 62 4.3         113.96
2010-May-27 02:01:12 1007.900 11.2 60 3.7         113.96
2010-May-27 03:03:20 1007.700 10.1 63 3.4         113.96
2010-May-27 04:01:15 1007.100 9.1 70 3.9         113.96
2010-May-27 05:01:13 1006.800 9.1 70 3.9         113.96
2010-May-27 06:01:13 1006.400 8.5 75 4.3         113.96
2010-May-27 07:01:12 1006.300 7.8 78 4.2         113.96
2010-May-27 08:01:13 1006.500 10.2 77 6.3         113.96
2010-May-27 09:01:19 1006.500 15.9 60 8.2         113.96
2010-May-27 10:01:12 1006.500 21.1 45 8.6         113.96
2010-May-27 11:01:13 1006.100 23.9 37 8.2         113.96
2010-May-27 12:01:16 1005.500 27.4 31 8.8         113.96
2010-May-27 13:01:16 1005.300 24.3 34 7.3         113.96
2010-May-27 14:01:12 1004.500 25.4 32 7.5         113.96
2010-May-27 15:01:14 1005.900 16.8 57 8.2         113.96
2010-May-27 16:01:12 1006.800 14.9 64 8.1         113.96
2010-May-27 17:01:16 1005.800 14.6 73 9.8         113.96
2010-May-27 18:01:16 1005.800 16.1 63 9.1         113.96
2010-May-27 19:01:17 1006.700 15.3 61 7.8         113.96
2010-May-27 20:08:09 1006.800 - - - - S     113.96
2010-May-27 21:01:13 1007.300 12.8 84 10.1         113.96
2010-May-27 22:01:11 1008.200 12.4 87 10.3         113.96
2010-May-27 23:01:18 1008.900 11.4 88 9.5         113.96

Temperatura Máxima:27°    Temperatura Mínima:
Presión Máxima:1008.900 Hpa    Presión Mínima:1004.500 Hpa


Volver